sensor_id;sensor_type;location;lat;lon;timestamp;temperature;humidity
45060;DHT22;30799;49.060;9.312;2023-04-25T00:00:51;19.70;59.70
45060;DHT22;30799;49.060;9.312;2023-04-25T00:03:18;19.70;59.70
45060;DHT22;30799;49.060;9.312;2023-04-25T00:05:45;19.70;59.90
45060;DHT22;30799;49.060;9.312;2023-04-25T00:08:12;19.70;59.70
45060;DHT22;30799;49.060;9.312;2023-04-25T00:10:39;19.70;59.70
45060;DHT22;30799;49.060;9.312;2023-04-25T00:13:06;19.70;59.80
45060;DHT22;30799;49.060;9.312;2023-04-25T00:15:34;19.70;59.90
45060;DHT22;30799;49.060;9.312;2023-04-25T00:18:02;19.70;59.80
45060;DHT22;30799;49.060;9.312;2023-04-25T00:20:29;19.70;59.80
45060;DHT22;30799;49.060;9.312;2023-04-25T00:22:56;19.70;59.80
45060;DHT22;30799;49.060;9.312;2023-04-25T00:25:23;19.70;59.80
45060;DHT22;30799;49.060;9.312;2023-04-25T00:27:49;19.70;59.90
45060;DHT22;30799;49.060;9.312;2023-04-25T00:30:16;19.70;59.80
45060;DHT22;30799;49.060;9.312;2023-04-25T00:32:43;19.70;59.90
45060;DHT22;30799;49.060;9.312;2023-04-25T00:35:09;19.70;59.90
45060;DHT22;30799;49.060;9.312;2023-04-25T00:37:36;19.70;60.60
45060;DHT22;30799;49.060;9.312;2023-04-25T00:40:05;19.70;59.90
45060;DHT22;30799;49.060;9.312;2023-04-25T00:42:32;19.70;59.90
45060;DHT22;30799;49.060;9.312;2023-04-25T00:45:00;19.70;59.90
45060;DHT22;30799;49.060;9.312;2023-04-25T00:47:28;19.70;59.90
45060;DHT22;30799;49.060;9.312;2023-04-25T00:49:55;19.70;60.70
45060;DHT22;30799;49.060;9.312;2023-04-25T00:52:21;19.70;60.00
45060;DHT22;30799;49.060;9.312;2023-04-25T00:54:48;19.70;59.90
45060;DHT22;30799;49.060;9.312;2023-04-25T00:57:15;19.70;60.00
45060;DHT22;30799;49.060;9.312;2023-04-25T00:59:45;19.70;59.90
45060;DHT22;30799;49.060;9.312;2023-04-25T01:02:13;19.70;59.90
45060;DHT22;30799;49.060;9.312;2023-04-25T01:04:39;19.70;60.00
45060;DHT22;30799;49.060;9.312;2023-04-25T01:07:06;19.70;60.00
45060;DHT22;30799;49.060;9.312;2023-04-25T01:09:33;19.70;59.90
45060;DHT22;30799;49.060;9.312;2023-04-25T01:12:00;19.70;60.00
45060;DHT22;30799;49.060;9.312;2023-04-25T01:14:27;19.70;60.00
45060;DHT22;30799;49.060;9.312;2023-04-25T01:16:54;19.70;60.00
45060;DHT22;30799;49.060;9.312;2023-04-25T01:19:21;19.70;60.00
45060;DHT22;30799;49.060;9.312;2023-04-25T01:21:48;19.60;60.00
45060;DHT22;30799;49.060;9.312;2023-04-25T01:24:14;19.70;60.00
45060;DHT22;30799;49.060;9.312;2023-04-25T01:26:42;19.70;60.10
45060;DHT22;30799;49.060;9.312;2023-04-25T01:29:17;19.70;60.00
45060;DHT22;30799;49.060;9.312;2023-04-25T01:31:44;19.70;60.00
45060;DHT22;30799;49.060;9.312;2023-04-25T01:34:14;19.70;60.00
45060;DHT22;30799;49.060;9.312;2023-04-25T01:36:41;19.70;60.00
45060;DHT22;30799;49.060;9.312;2023-04-25T01:39:08;19.70;60.10
45060;DHT22;30799;49.060;9.312;2023-04-25T01:41:35;19.70;60.00
45060;DHT22;30799;49.060;9.312;2023-04-25T01:44:02;19.70;60.10
45060;DHT22;30799;49.060;9.312;2023-04-25T01:46:29;19.60;60.00
45060;DHT22;30799;49.060;9.312;2023-04-25T01:48:57;19.70;60.10
45060;DHT22;30799;49.060;9.312;2023-04-25T01:51:23;19.70;60.00
45060;DHT22;30799;49.060;9.312;2023-04-25T01:53:50;19.70;60.10
45060;DHT22;30799;49.060;9.312;2023-04-25T01:56:18;19.70;60.00
45060;DHT22;30799;49.060;9.312;2023-04-25T01:58:45;19.70;60.10
45060;DHT22;30799;49.060;9.312;2023-04-25T02:01:12;19.60;60.00
45060;DHT22;30799;49.060;9.312;2023-04-25T02:03:38;19.70;60.10
45060;DHT22;30799;49.060;9.312;2023-04-25T02:06:06;19.70;60.10
45060;DHT22;30799;49.060;9.312;2023-04-25T02:08:32;19.70;60.00
45060;DHT22;30799;49.060;9.312;2023-04-25T02:10:59;19.70;60.00
45060;DHT22;30799;49.060;9.312;2023-04-25T02:13:26;19.60;60.00
45060;DHT22;30799;49.060;9.312;2023-04-25T02:15:53;19.60;60.00
45060;DHT22;30799;49.060;9.312;2023-04-25T02:18:19;19.60;60.00
45060;DHT22;30799;49.060;9.312;2023-04-25T02:20:47;19.60;59.90
45060;DHT22;30799;49.060;9.312;2023-04-25T02:23:14;19.70;60.00
45060;DHT22;30799;49.060;9.312;2023-04-25T02:25:42;19.70;60.10
45060;DHT22;30799;49.060;9.312;2023-04-25T02:28:08;19.70;60.10
45060;DHT22;30799;49.060;9.312;2023-04-25T02:30:35;19.60;60.10
45060;DHT22;30799;49.060;9.312;2023-04-25T02:33:02;19.70;60.10
45060;DHT22;30799;49.060;9.312;2023-04-25T02:35:29;19.70;60.20
45060;DHT22;30799;49.060;9.312;2023-04-25T02:37:55;19.70;60.20
45060;DHT22;30799;49.060;9.312;2023-04-25T02:40:22;19.70;60.20
45060;DHT22;30799;49.060;9.312;2023-04-25T02:42:49;19.70;60.10
45060;DHT22;30799;49.060;9.312;2023-04-25T02:45:15;19.70;60.10
45060;DHT22;30799;49.060;9.312;2023-04-25T02:47:42;19.70;60.10
45060;DHT22;30799;49.060;9.312;2023-04-25T02:50:09;19.70;60.20
45060;DHT22;30799;49.060;9.312;2023-04-25T02:52:36;19.70;60.20
45060;DHT22;30799;49.060;9.312;2023-04-25T02:55:03;19.70;60.10
45060;DHT22;30799;49.060;9.312;2023-04-25T02:57:29;19.70;60.20
45060;DHT22;30799;49.060;9.312;2023-04-25T02:59:56;19.70;60.10
45060;DHT22;30799;49.060;9.312;2023-04-25T03:02:22;19.70;60.10
45060;DHT22;30799;49.060;9.312;2023-04-25T03:04:49;19.70;60.10
45060;DHT22;30799;49.060;9.312;2023-04-25T03:07:16;19.70;60.20
45060;DHT22;30799;49.060;9.312;2023-04-25T03:09:43;19.70;60.20
45060;DHT22;30799;49.060;9.312;2023-04-25T03:12:09;19.70;60.00
45060;DHT22;30799;49.060;9.312;2023-04-25T03:14:36;19.70;60.10
45060;DHT22;30799;49.060;9.312;2023-04-25T03:17:03;19.70;60.10
45060;DHT22;30799;49.060;9.312;2023-04-25T03:19:29;19.70;60.10
45060;DHT22;30799;49.060;9.312;2023-04-25T03:21:56;19.70;60.10
45060;DHT22;30799;49.060;9.312;2023-04-25T03:24:23;19.70;60.20
45060;DHT22;30799;49.060;9.312;2023-04-25T03:26:50;19.70;60.00
45060;DHT22;30799;49.060;9.312;2023-04-25T03:29:16;19.70;60.10
45060;DHT22;30799;49.060;9.312;2023-04-25T03:31:43;19.70;60.10
45060;DHT22;30799;49.060;9.312;2023-04-25T03:34:10;19.70;60.10
45060;DHT22;30799;49.060;9.312;2023-04-25T03:36:37;19.70;60.10
45060;DHT22;30799;49.060;9.312;2023-04-25T03:39:06;19.70;60.10
45060;DHT22;30799;49.060;9.312;2023-04-25T03:41:33;19.70;60.10
45060;DHT22;30799;49.060;9.312;2023-04-25T03:43:59;19.70;60.20
45060;DHT22;30799;49.060;9.312;2023-04-25T03:46:26;19.70;60.10
45060;DHT22;30799;49.060;9.312;2023-04-25T03:48:52;19.70;60.20
45060;DHT22;30799;49.060;9.312;2023-04-25T03:51:19;19.70;60.20
45060;DHT22;30799;49.060;9.312;2023-04-25T03:53:47;19.70;60.20
45060;DHT22;30799;49.060;9.312;2023-04-25T03:56:15;19.70;60.20
45060;DHT22;30799;49.060;9.312;2023-04-25T03:58:41;19.70;60.20
45060;DHT22;30799;49.060;9.312;2023-04-25T04:01:08;19.70;60.20
45060;DHT22;30799;49.060;9.312;2023-04-25T04:03:35;19.70;60.20
45060;DHT22;30799;49.060;9.312;2023-04-25T04:06:06;19.70;60.20
45060;DHT22;30799;49.060;9.312;2023-04-25T04:08:33;19.70;60.20
45060;DHT22;30799;49.060;9.312;2023-04-25T04:11:00;19.70;60.10
45060;DHT22;30799;49.060;9.312;2023-04-25T04:13:27;19.60;60.20
45060;DHT22;30799;49.060;9.312;2023-04-25T04:15:55;19.60;60.20
45060;DHT22;30799;49.060;9.312;2023-04-25T04:18:22;19.70;60.20
45060;DHT22;30799;49.060;9.312;2023-04-25T04:20:48;19.70;60.30
45060;DHT22;30799;49.060;9.312;2023-04-25T04:23:15;19.70;60.30
45060;DHT22;30799;49.060;9.312;2023-04-25T04:25:42;19.70;60.20
45060;DHT22;30799;49.060;9.312;2023-04-25T04:28:08;19.60;60.10
45060;DHT22;30799;49.060;9.312;2023-04-25T04:30:37;19.60;60.20
45060;DHT22;30799;49.060;9.312;2023-04-25T04:33:05;19.60;60.10
45060;DHT22;30799;49.060;9.312;2023-04-25T04:35:32;19.70;60.50
45060;DHT22;30799;49.060;9.312;2023-04-25T04:37:59;19.70;60.20
45060;DHT22;30799;49.060;9.312;2023-04-25T04:40:25;19.70;60.30
45060;DHT22;30799;49.060;9.312;2023-04-25T04:42:52;19.70;60.40
45060;DHT22;30799;49.060;9.312;2023-04-25T04:45:19;19.70;60.30
45060;DHT22;30799;49.060;9.312;2023-04-25T04:47:47;19.60;60.30
45060;DHT22;30799;49.060;9.312;2023-04-25T04:50:15;19.60;60.20
45060;DHT22;30799;49.060;9.312;2023-04-25T04:52:42;19.60;60.00
45060;DHT22;30799;49.060;9.312;2023-04-25T04:55:09;19.70;60.00
45060;DHT22;30799;49.060;9.312;2023-04-25T04:57:37;19.70;59.70
45060;DHT22;30799;49.060;9.312;2023-04-25T05:00:06;19.70;59.70
45060;DHT22;30799;49.060;9.312;2023-04-25T05:02:38;19.70;60.00
45060;DHT22;30799;49.060;9.312;2023-04-25T05:05:05;19.70;60.20
45060;DHT22;30799;49.060;9.312;2023-04-25T05:07:32;19.70;59.90
45060;DHT22;30799;49.060;9.312;2023-04-25T05:09:59;19.70;60.10
45060;DHT22;30799;49.060;9.312;2023-04-25T05:12:25;19.70;60.30
45060;DHT22;30799;49.060;9.312;2023-04-25T05:14:52;19.80;62.60
45060;DHT22;30799;49.060;9.312;2023-04-25T05:17:19;19.80;62.60
45060;DHT22;30799;49.060;9.312;2023-04-25T05:19:45;19.80;62.30
45060;DHT22;30799;49.060;9.312;2023-04-25T05:22:12;19.70;58.40
45060;DHT22;30799;49.060;9.312;2023-04-25T05:24:39;19.40;57.90
45060;DHT22;30799;49.060;9.312;2023-04-25T05:27:05;19.50;59.60
45060;DHT22;30799;49.060;9.312;2023-04-25T05:29:32;19.50;60.60
45060;DHT22;30799;49.060;9.312;2023-04-25T05:31:59;19.60;61.00
45060;DHT22;30799;49.060;9.312;2023-04-25T05:34:26;19.60;61.20
45060;DHT22;30799;49.060;9.312;2023-04-25T05:36:52;19.60;61.30
45060;DHT22;30799;49.060;9.312;2023-04-25T05:39:19;19.60;61.50
45060;DHT22;30799;49.060;9.312;2023-04-25T05:41:46;19.60;61.50
45060;DHT22;30799;49.060;9.312;2023-04-25T05:44:12;19.60;61.50
45060;DHT22;30799;49.060;9.312;2023-04-25T05:46:39;19.60;61.50
45060;DHT22;30799;49.060;9.312;2023-04-25T05:49:06;19.60;61.60
45060;DHT22;30799;49.060;9.312;2023-04-25T05:51:33;19.60;61.50
45060;DHT22;30799;49.060;9.312;2023-04-25T05:53:59;19.60;61.60
45060;DHT22;30799;49.060;9.312;2023-04-25T05:56:26;19.60;62.00
45060;DHT22;30799;49.060;9.312;2023-04-25T05:58:53;19.60;61.60
45060;DHT22;30799;49.060;9.312;2023-04-25T06:01:20;19.60;61.60
45060;DHT22;30799;49.060;9.312;2023-04-25T06:03:46;19.60;61.70
45060;DHT22;30799;49.060;9.312;2023-04-25T06:06:13;19.60;61.60
45060;DHT22;30799;49.060;9.312;2023-04-25T06:08:40;19.60;61.80
45060;DHT22;30799;49.060;9.312;2023-04-25T06:11:07;19.60;61.80
45060;DHT22;30799;49.060;9.312;2023-04-25T06:13:34;19.60;61.80
45060;DHT22;30799;49.060;9.312;2023-04-25T06:16:01;19.60;61.80
45060;DHT22;30799;49.060;9.312;2023-04-25T06:18:27;19.60;61.70
45060;DHT22;30799;49.060;9.312;2023-04-25T06:20:54;19.60;61.70
45060;DHT22;30799;49.060;9.312;2023-04-25T06:23:20;19.60;61.80
45060;DHT22;30799;49.060;9.312;2023-04-25T06:25:47;19.60;61.90
45060;DHT22;30799;49.060;9.312;2023-04-25T06:28:14;19.60;62.10
45060;DHT22;30799;49.060;9.312;2023-04-25T06:30:40;19.60;61.90
45060;DHT22;30799;49.060;9.312;2023-04-25T06:33:07;19.60;62.00
45060;DHT22;30799;49.060;9.312;2023-04-25T06:35:35;19.60;62.00
45060;DHT22;30799;49.060;9.312;2023-04-25T06:38:01;19.60;62.00
45060;DHT22;30799;49.060;9.312;2023-04-25T06:40:28;19.60;62.10
45060;DHT22;30799;49.060;9.312;2023-04-25T06:42:55;19.60;62.10
45060;DHT22;30799;49.060;9.312;2023-04-25T06:45:21;19.60;62.00
45060;DHT22;30799;49.060;9.312;2023-04-25T06:47:48;19.50;62.00
45060;DHT22;30799;49.060;9.312;2023-04-25T06:50:15;19.50;61.80
45060;DHT22;30799;49.060;9.312;2023-04-25T06:52:41;19.50;61.90
45060;DHT22;30799;49.060;9.312;2023-04-25T06:55:08;19.60;61.90
45060;DHT22;30799;49.060;9.312;2023-04-25T06:57:35;19.60;61.80
45060;DHT22;30799;49.060;9.312;2023-04-25T07:00:03;19.50;61.80
45060;DHT22;30799;49.060;9.312;2023-04-25T07:02:32;19.60;61.70
45060;DHT22;30799;49.060;9.312;2023-04-25T07:04:58;19.50;61.60
45060;DHT22;30799;49.060;9.312;2023-04-25T07:07:26;19.50;61.60
45060;DHT22;30799;49.060;9.312;2023-04-25T07:09:53;19.60;61.80
45060;DHT22;30799;49.060;9.312;2023-04-25T07:12:20;19.50;61.50
45060;DHT22;30799;49.060;9.312;2023-04-25T07:14:46;19.50;61.60
45060;DHT22;30799;49.060;9.312;2023-04-25T07:17:13;19.50;61.70
45060;DHT22;30799;49.060;9.312;2023-04-25T07:19:40;19.50;61.60
45060;DHT22;30799;49.060;9.312;2023-04-25T07:22:06;19.50;61.70
45060;DHT22;30799;49.060;9.312;2023-04-25T07:24:33;19.50;61.70
45060;DHT22;30799;49.060;9.312;2023-04-25T07:27:00;19.50;61.70
45060;DHT22;30799;49.060;9.312;2023-04-25T07:29:28;19.50;61.70
45060;DHT22;30799;49.060;9.312;2023-04-25T07:31:54;19.50;61.60
45060;DHT22;30799;49.060;9.312;2023-04-25T07:34:21;19.50;61.70
45060;DHT22;30799;49.060;9.312;2023-04-25T07:36:48;19.50;61.70
45060;DHT22;30799;49.060;9.312;2023-04-25T07:39:14;19.50;61.50
45060;DHT22;30799;49.060;9.312;2023-04-25T07:41:41;19.50;61.60
45060;DHT22;30799;49.060;9.312;2023-04-25T07:44:08;19.50;61.70
45060;DHT22;30799;49.060;9.312;2023-04-25T07:46:34;19.50;61.60
45060;DHT22;30799;49.060;9.312;2023-04-25T07:49:01;19.50;61.60
45060;DHT22;30799;49.060;9.312;2023-04-25T07:51:28;19.50;61.70
45060;DHT22;30799;49.060;9.312;2023-04-25T07:53:54;19.50;61.60
45060;DHT22;30799;49.060;9.312;2023-04-25T07:56:21;19.50;62.30
45060;DHT22;30799;49.060;9.312;2023-04-25T07:58:48;19.50;61.70
45060;DHT22;30799;49.060;9.312;2023-04-25T08:01:15;19.50;61.50
45060;DHT22;30799;49.060;9.312;2023-04-25T08:03:41;19.50;61.50
45060;DHT22;30799;49.060;9.312;2023-04-25T08:06:09;19.50;61.50
45060;DHT22;30799;49.060;9.312;2023-04-25T08:08:35;19.50;61.50
45060;DHT22;30799;49.060;9.312;2023-04-25T08:11:02;19.50;61.50
45060;DHT22;30799;49.060;9.312;2023-04-25T08:13:29;19.50;61.50
45060;DHT22;30799;49.060;9.312;2023-04-25T08:15:55;19.50;61.40
45060;DHT22;30799;49.060;9.312;2023-04-25T08:18:22;19.50;61.40
45060;DHT22;30799;49.060;9.312;2023-04-25T08:20:49;19.50;61.40
45060;DHT22;30799;49.060;9.312;2023-04-25T08:23:16;19.50;61.40
45060;DHT22;30799;49.060;9.312;2023-04-25T08:25:42;19.50;61.40
45060;DHT22;30799;49.060;9.312;2023-04-25T08:28:09;19.50;61.50
45060;DHT22;30799;49.060;9.312;2023-04-25T08:30:36;19.50;61.40
45060;DHT22;30799;49.060;9.312;2023-04-25T08:33:03;19.50;61.40
45060;DHT22;30799;49.060;9.312;2023-04-25T08:35:30;19.50;61.30
45060;DHT22;30799;49.060;9.312;2023-04-25T08:37:57;19.50;61.30
45060;DHT22;30799;49.060;9.312;2023-04-25T08:40:27;19.50;61.30
45060;DHT22;30799;49.060;9.312;2023-04-25T08:43:00;19.50;61.30
45060;DHT22;30799;49.060;9.312;2023-04-25T08:45:31;19.50;61.40
45060;DHT22;30799;49.060;9.312;2023-04-25T08:47:58;19.50;61.30
45060;DHT22;30799;49.060;9.312;2023-04-25T08:50:27;19.50;61.30
45060;DHT22;30799;49.060;9.312;2023-04-25T08:52:54;19.50;61.30
45060;DHT22;30799;49.060;9.312;2023-04-25T08:55:22;19.50;61.30
45060;DHT22;30799;49.060;9.312;2023-04-25T08:57:49;19.50;61.40
45060;DHT22;30799;49.060;9.312;2023-04-25T09:00:17;19.50;61.40
45060;DHT22;30799;49.060;9.312;2023-04-25T09:02:45;19.40;61.10
45060;DHT22;30799;49.060;9.312;2023-04-25T09:05:13;19.50;61.30
45060;DHT22;30799;49.060;9.312;2023-04-25T09:07:40;19.40;61.20
45060;DHT22;30799;49.060;9.312;2023-04-25T09:10:07;19.50;61.20
45060;DHT22;30799;49.060;9.312;2023-04-25T09:12:35;19.50;61.20
45060;DHT22;30799;49.060;9.312;2023-04-25T09:17:30;19.50;61.20
45060;DHT22;30799;49.060;9.312;2023-04-25T09:20:06;19.40;61.10
45060;DHT22;30799;49.060;9.312;2023-04-25T09:22:35;19.40;61.10
45060;DHT22;30799;49.060;9.312;2023-04-25T09:25:10;19.50;61.30
45060;DHT22;30799;49.060;9.312;2023-04-25T09:27:52;19.50;61.20
45060;DHT22;30799;49.060;9.312;2023-04-25T09:30:33;19.40;61.10
45060;DHT22;30799;49.060;9.312;2023-04-25T09:33:07;19.50;61.10
45060;DHT22;30799;49.060;9.312;2023-04-25T09:35:39;19.50;61.20
45060;DHT22;30799;49.060;9.312;2023-04-25T09:38:15;19.40;61.00
45060;DHT22;30799;49.060;9.312;2023-04-25T09:40:46;19.50;61.10
45060;DHT22;30799;49.060;9.312;2023-04-25T09:43:19;19.50;61.10
45060;DHT22;30799;49.060;9.312;2023-04-25T09:45:47;19.40;61.10
45060;DHT22;30799;49.060;9.312;2023-04-25T09:48:21;19.50;60.90
45060;DHT22;30799;49.060;9.312;2023-04-25T09:53:33;19.40;61.10
45060;DHT22;30799;49.060;9.312;2023-04-25T09:56:00;19.40;61.00
45060;DHT22;30799;49.060;9.312;2023-04-25T09:58:29;19.40;60.90
45060;DHT22;30799;49.060;9.312;2023-04-25T10:01:00;19.40;60.60
45060;DHT22;30799;49.060;9.312;2023-04-25T10:03:34;19.50;60.60
45060;DHT22;30799;49.060;9.312;2023-04-25T10:06:04;19.50;60.70
45060;DHT22;30799;49.060;9.312;2023-04-25T10:08:33;19.40;60.50
45060;DHT22;30799;49.060;9.312;2023-04-25T10:11:03;19.40;60.60
45060;DHT22;30799;49.060;9.312;2023-04-25T10:13:31;19.40;60.80
45060;DHT22;30799;49.060;9.312;2023-04-25T10:15:59;19.40;60.70
45060;DHT22;30799;49.060;9.312;2023-04-25T10:18:28;19.40;60.70
45060;DHT22;30799;49.060;9.312;2023-04-25T10:20:56;19.40;60.80
45060;DHT22;30799;49.060;9.312;2023-04-25T10:23:24;19.40;60.70
45060;DHT22;30799;49.060;9.312;2023-04-25T10:25:52;19.40;60.80
45060;DHT22;30799;49.060;9.312;2023-04-25T10:28:19;19.40;60.70
45060;DHT22;30799;49.060;9.312;2023-04-25T10:30:57;19.40;60.70
45060;DHT22;30799;49.060;9.312;2023-04-25T10:33:39;19.40;60.60
45060;DHT22;30799;49.060;9.312;2023-04-25T10:36:11;19.40;60.80
45060;DHT22;30799;49.060;9.312;2023-04-25T10:38:39;19.40;60.60
45060;DHT22;30799;49.060;9.312;2023-04-25T10:41:07;19.40;60.60
45060;DHT22;30799;49.060;9.312;2023-04-25T10:43:42;19.40;60.60
45060;DHT22;30799;49.060;9.312;2023-04-25T10:46:28;19.40;60.50
45060;DHT22;30799;49.060;9.312;2023-04-25T10:49:00;19.40;60.50
45060;DHT22;30799;49.060;9.312;2023-04-25T10:51:30;19.40;60.50
45060;DHT22;30799;49.060;9.312;2023-04-25T10:54:18;19.40;60.70
45060;DHT22;30799;49.060;9.312;2023-04-25T10:56:48;19.40;60.70
45060;DHT22;30799;49.060;9.312;2023-04-25T10:59:16;19.40;60.70
45060;DHT22;30799;49.060;9.312;2023-04-25T11:04:31;19.40;60.90
45060;DHT22;30799;49.060;9.312;2023-04-25T11:09:36;19.40;60.80
45060;DHT22;30799;49.060;9.312;2023-04-25T11:12:04;19.40;60.80
45060;DHT22;30799;49.060;9.312;2023-04-25T11:14:33;19.40;60.80
45060;DHT22;30799;49.060;9.312;2023-04-25T11:17:00;19.40;60.80
45060;DHT22;30799;49.060;9.312;2023-04-25T11:19:30;19.40;60.80
45060;DHT22;30799;49.060;9.312;2023-04-25T11:21:58;19.40;60.80
45060;DHT22;30799;49.060;9.312;2023-04-25T11:24:27;19.40;60.80
45060;DHT22;30799;49.060;9.312;2023-04-25T11:26:54;19.30;60.80
45060;DHT22;30799;49.060;9.312;2023-04-25T11:29:31;19.40;60.90
45060;DHT22;30799;49.060;9.312;2023-04-25T11:31:59;19.30;60.70
45060;DHT22;30799;49.060;9.312;2023-04-25T11:34:28;19.40;60.80
45060;DHT22;30799;49.060;9.312;2023-04-25T11:36:57;19.40;60.80
45060;DHT22;30799;49.060;9.312;2023-04-25T11:39:24;19.40;60.80
45060;DHT22;30799;49.060;9.312;2023-04-25T11:41:52;19.40;60.80
45060;DHT22;30799;49.060;9.312;2023-04-25T11:44:20;19.40;60.80
45060;DHT22;30799;49.060;9.312;2023-04-25T11:46:47;19.40;60.90
45060;DHT22;30799;49.060;9.312;2023-04-25T11:49:15;19.40;60.80
45060;DHT22;30799;49.060;9.312;2023-04-25T11:51:43;19.40;60.70
45060;DHT22;30799;49.060;9.312;2023-04-25T11:54:11;19.40;60.80
45060;DHT22;30799;49.060;9.312;2023-04-25T11:56:42;19.40;60.80
45060;DHT22;30799;49.060;9.312;2023-04-25T11:59:09;19.40;60.80
45060;DHT22;30799;49.060;9.312;2023-04-25T12:01:39;19.40;60.80
45060;DHT22;30799;49.060;9.312;2023-04-25T12:04:20;19.40;60.80
45060;DHT22;30799;49.060;9.312;2023-04-25T12:06:50;19.30;60.70
45060;DHT22;30799;49.060;9.312;2023-04-25T12:09:29;19.40;60.80
45060;DHT22;30799;49.060;9.312;2023-04-25T12:11:56;19.40;60.80
45060;DHT22;30799;49.060;9.312;2023-04-25T12:14:26;19.40;60.80
45060;DHT22;30799;49.060;9.312;2023-04-25T12:16:59;19.30;60.70
45060;DHT22;30799;49.060;9.312;2023-04-25T12:19:32;19.40;60.80
45060;DHT22;30799;49.060;9.312;2023-04-25T12:22:01;19.40;60.70
45060;DHT22;30799;49.060;9.312;2023-04-25T12:24:29;19.30;60.70
45060;DHT22;30799;49.060;9.312;2023-04-25T12:27:01;19.40;60.80
45060;DHT22;30799;49.060;9.312;2023-04-25T12:29:33;19.40;60.90
45060;DHT22;30799;49.060;9.312;2023-04-25T12:32:15;19.40;60.80
45060;DHT22;30799;49.060;9.312;2023-04-25T12:34:42;19.40;60.80
45060;DHT22;30799;49.060;9.312;2023-04-25T12:37:09;19.30;60.80
45060;DHT22;30799;49.060;9.312;2023-04-25T12:39:35;19.30;60.80
45060;DHT22;30799;49.060;9.312;2023-04-25T12:42:02;19.40;60.90
45060;DHT22;30799;49.060;9.312;2023-04-25T12:44:32;19.30;60.80
45060;DHT22;30799;49.060;9.312;2023-04-25T12:46:59;19.40;60.80
45060;DHT22;30799;49.060;9.312;2023-04-25T12:49:26;19.40;60.90
45060;DHT22;30799;49.060;9.312;2023-04-25T12:51:53;19.30;60.70
45060;DHT22;30799;49.060;9.312;2023-04-25T12:54:20;19.30;60.80
45060;DHT22;30799;49.060;9.312;2023-04-25T12:56:46;19.40;60.80
45060;DHT22;30799;49.060;9.312;2023-04-25T12:59:13;19.40;60.80
45060;DHT22;30799;49.060;9.312;2023-04-25T13:01:40;19.40;60.80
45060;DHT22;30799;49.060;9.312;2023-04-25T13:04:07;19.30;60.70
45060;DHT22;30799;49.060;9.312;2023-04-25T13:06:34;19.40;60.90
45060;DHT22;30799;49.060;9.312;2023-04-25T13:09:00;19.30;60.80
45060;DHT22;30799;49.060;9.312;2023-04-25T13:11:27;19.40;60.90
45060;DHT22;30799;49.060;9.312;2023-04-25T13:13:58;19.40;60.90
45060;DHT22;30799;49.060;9.312;2023-04-25T13:16:26;19.40;60.90
45060;DHT22;30799;49.060;9.312;2023-04-25T13:18:53;19.30;60.80
45060;DHT22;30799;49.060;9.312;2023-04-25T13:21:19;19.40;60.80
45060;DHT22;30799;49.060;9.312;2023-04-25T13:23:46;19.40;60.80
45060;DHT22;30799;49.060;9.312;2023-04-25T13:26:13;19.30;60.80
45060;DHT22;30799;49.060;9.312;2023-04-25T13:28:40;19.40;60.80
45060;DHT22;30799;49.060;9.312;2023-04-25T13:31:10;19.30;60.70
45060;DHT22;30799;49.060;9.312;2023-04-25T13:33:36;19.30;60.70
45060;DHT22;30799;49.060;9.312;2023-04-25T13:36:03;19.30;60.70
45060;DHT22;30799;49.060;9.312;2023-04-25T13:38:30;19.30;60.60
45060;DHT22;30799;49.060;9.312;2023-04-25T13:40:57;19.30;60.50
45060;DHT22;30799;49.060;9.312;2023-04-25T13:43:23;19.30;60.50
45060;DHT22;30799;49.060;9.312;2023-04-25T13:45:50;19.30;60.60
45060;DHT22;30799;49.060;9.312;2023-04-25T13:48:18;19.30;60.50
45060;DHT22;30799;49.060;9.312;2023-04-25T13:50:46;19.50;60.40
45060;DHT22;30799;49.060;9.312;2023-04-25T13:53:13;19.30;60.30
45060;DHT22;30799;49.060;9.312;2023-04-25T13:55:39;19.30;60.40
45060;DHT22;30799;49.060;9.312;2023-04-25T13:58:06;19.30;60.40
45060;DHT22;30799;49.060;9.312;2023-04-25T14:00:37;19.30;60.30
45060;DHT22;30799;49.060;9.312;2023-04-25T14:03:06;19.30;60.30
45060;DHT22;30799;49.060;9.312;2023-04-25T14:05:36;19.30;60.20
45060;DHT22;30799;49.060;9.312;2023-04-25T14:08:07;19.30;60.30
45060;DHT22;30799;49.060;9.312;2023-04-25T14:10:35;19.30;60.00
45060;DHT22;30799;49.060;9.312;2023-04-25T14:13:02;19.30;60.10
45060;DHT22;30799;49.060;9.312;2023-04-25T14:15:31;19.30;60.00
45060;DHT22;30799;49.060;9.312;2023-04-25T14:17:59;19.40;60.10
45060;DHT22;30799;49.060;9.312;2023-04-25T14:20:26;19.30;60.00
45060;DHT22;30799;49.060;9.312;2023-04-25T14:22:53;19.40;60.00
45060;DHT22;30799;49.060;9.312;2023-04-25T14:25:21;19.30;59.80
45060;DHT22;30799;49.060;9.312;2023-04-25T14:27:48;19.30;59.90
45060;DHT22;30799;49.060;9.312;2023-04-25T14:30:17;19.30;59.80
45060;DHT22;30799;49.060;9.312;2023-04-25T14:32:45;19.30;59.90
45060;DHT22;30799;49.060;9.312;2023-04-25T14:35:12;19.30;59.70
45060;DHT22;30799;49.060;9.312;2023-04-25T14:37:39;19.30;59.80
45060;DHT22;30799;49.060;9.312;2023-04-25T14:40:07;19.30;59.80
45060;DHT22;30799;49.060;9.312;2023-04-25T14:42:39;19.30;59.80
45060;DHT22;30799;49.060;9.312;2023-04-25T14:45:07;19.30;59.70
45060;DHT22;30799;49.060;9.312;2023-04-25T14:47:35;19.30;59.60
45060;DHT22;30799;49.060;9.312;2023-04-25T14:50:03;19.30;59.50
45060;DHT22;30799;49.060;9.312;2023-04-25T14:52:31;19.30;59.50
45060;DHT22;30799;49.060;9.312;2023-04-25T14:54:57;19.30;59.30
45060;DHT22;30799;49.060;9.312;2023-04-25T14:57:26;19.30;59.30
45060;DHT22;30799;49.060;9.312;2023-04-25T14:59:53;19.30;59.30
45060;DHT22;30799;49.060;9.312;2023-04-25T15:02:19;19.30;58.50
45060;DHT22;30799;49.060;9.312;2023-04-25T15:04:46;19.30;58.90
45060;DHT22;30799;49.060;9.312;2023-04-25T15:07:13;19.30;59.20
45060;DHT22;30799;49.060;9.312;2023-04-25T15:09:43;19.30;59.30
45060;DHT22;30799;49.060;9.312;2023-04-25T15:12:10;19.30;59.10
45060;DHT22;30799;49.060;9.312;2023-04-25T15:14:37;19.30;59.20
45060;DHT22;30799;49.060;9.312;2023-04-25T15:17:04;19.30;59.40
45060;DHT22;30799;49.060;9.312;2023-04-25T15:19:30;19.30;59.30
45060;DHT22;30799;49.060;9.312;2023-04-25T15:21:58;19.30;59.20
45060;DHT22;30799;49.060;9.312;2023-04-25T15:24:27;19.30;59.20
45060;DHT22;30799;49.060;9.312;2023-04-25T15:26:55;19.30;59.30
45060;DHT22;30799;49.060;9.312;2023-04-25T15:29:21;19.30;59.20
45060;DHT22;30799;49.060;9.312;2023-04-25T15:31:48;19.30;59.20
45060;DHT22;30799;49.060;9.312;2023-04-25T15:34:15;19.30;59.20
45060;DHT22;30799;49.060;9.312;2023-04-25T15:36:41;19.30;59.30
45060;DHT22;30799;49.060;9.312;2023-04-25T15:39:08;19.30;59.20
45060;DHT22;30799;49.060;9.312;2023-04-25T15:41:36;19.30;59.20
45060;DHT22;30799;49.060;9.312;2023-04-25T15:44:03;19.30;59.20